createdAt,value
2022-08-28T00:01:15.806Z,15.37
2022-08-28T00:06:19.036Z,18.17
2022-08-28T00:11:23.791Z,13.70
2022-08-28T00:16:27.538Z,14.55
2022-08-28T00:21:33.183Z,8.70
2022-08-28T00:26:56.159Z,14.35
2022-08-28T00:31:59.662Z,19.73
2022-08-28T00:37:02.814Z,12.77
2022-08-28T00:42:07.588Z,11.77
2022-08-28T00:47:10.724Z,17.33
2022-08-28T00:52:16.070Z,15.18
2022-08-28T00:57:27.021Z,12.75
2022-08-28T01:02:31.923Z,13.35
2022-08-28T01:07:35.427Z,14.93
2022-08-28T01:12:40.430Z,16.80
2022-08-28T01:17:47.587Z,15.77
2022-08-28T01:22:59.369Z,19.88
2022-08-28T01:28:06.107Z,18.83
2022-08-28T01:33:09.270Z,19.98
2022-08-28T01:38:20.256Z,17.85
2022-08-28T01:43:28.153Z,17.75
2022-08-28T01:48:35.056Z,13.82
2022-08-28T01:53:39.105Z,18.63
2022-08-28T01:58:44.080Z,23.42
2022-08-28T02:03:47.869Z,16.10
2022-08-28T02:08:55.260Z,19.55
2022-08-28T02:14:00.948Z,17.77
2022-08-28T02:19:04.493Z,16.58
2022-08-28T02:24:07.818Z,17.83
2022-08-28T02:29:13.146Z,17.90
2022-08-28T02:34:16.372Z,15.85
2022-08-28T02:39:19.485Z,17.23
2022-08-28T02:44:23.840Z,20.85
2022-08-28T02:49:31.274Z,11.77
2022-08-28T02:54:39.807Z,17.85
2022-08-28T02:59:44.268Z,18.40
2022-08-28T03:04:48.400Z,15.77
2022-08-28T03:09:51.591Z,17.95
2022-08-28T03:14:56.923Z,14.70
2022-08-28T03:20:00.374Z,14.35
2022-08-28T03:25:03.907Z,9.73
2022-08-28T03:30:09.396Z,15.75
2022-08-28T03:35:13.436Z,12.23
2022-08-28T03:40:16.904Z,13.65
2022-08-28T03:45:22.277Z,13.93
2022-08-28T03:50:25.394Z,15.35
2022-08-28T03:55:31.588Z,12.07
2022-08-28T04:00:40.487Z,8.25
2022-08-28T04:05:45.377Z,10.80
2022-08-28T04:10:48.932Z,15.13
2022-08-28T04:16:02.635Z,18.30
2022-08-28T04:21:11.872Z,16.02
2022-08-28T04:31:32.302Z,15.30
2022-08-28T04:36:37.785Z,12.70
2022-08-28T04:46:45.409Z,10.90
2022-08-28T04:51:51.609Z,13.40
2022-08-28T04:56:54.919Z,12.70
2022-08-28T05:01:59.566Z,13.75
2022-08-28T05:07:02.793Z,17.17
2022-08-28T05:12:06.412Z,15.02
2022-08-28T05:17:13.103Z,14.98
2022-08-28T05:22:16.234Z,8.80
2022-08-28T05:27:19.432Z,16.75
2022-08-28T05:32:24.256Z,9.23
2022-08-28T05:37:27.777Z,25.33
2022-08-28T05:42:31.907Z,13.25
2022-08-28T05:47:38.526Z,15.77
2022-08-28T05:52:42.681Z,10.93
2022-08-28T05:57:45.784Z,14.43
2022-08-28T06:02:50.262Z,17.42
2022-08-28T06:07:53.718Z,16.60
2022-08-28T06:12:56.943Z,15.15
2022-08-28T06:18:01.686Z,13.70
2022-08-28T06:23:04.905Z,14.10
2022-08-28T06:28:07.996Z,15.13
2022-08-28T06:33:16.407Z,15.57
2022-08-28T06:38:21.092Z,11.98
2022-08-28T06:43:26.813Z,21.23
2022-08-28T06:48:31.753Z,15.75
2022-08-28T06:53:35.284Z,11.85
2022-08-28T06:58:41.134Z,13.77
2022-08-28T07:03:46.238Z,11.73
2022-08-28T07:13:53.364Z,20.88
2022-08-28T07:18:58.245Z,13.52
2022-08-28T07:24:03.396Z,17.08
2022-08-28T07:34:18.659Z,14.40
2022-08-28T07:39:21.811Z,18.15
2022-08-28T07:44:43.640Z,13.55
2022-08-28T07:49:48.522Z,12.45
2022-08-28T07:54:51.676Z,18.02
2022-08-28T07:59:54.808Z,18.50
2022-08-28T08:04:59.325Z,15.77
2022-08-28T08:10:02.506Z,14.50
2022-08-28T08:15:06.492Z,16.23
2022-08-28T08:20:11.705Z,14.13
2022-08-28T08:25:14.888Z,13.95
2022-08-28T08:30:18.133Z,10.68
2022-08-28T08:35:22.670Z,18.02
2022-08-28T08:40:25.859Z,13.23
2022-08-28T08:45:31.070Z,16.67
2022-08-28T08:55:45.126Z,9.57
2022-08-28T09:00:56.208Z,12.88
2022-08-28T09:06:03.433Z,11.15
2022-08-28T09:11:16.818Z,11.63
2022-08-28T09:16:27.142Z,15.40
2022-08-28T09:21:38.788Z,9.52
2022-08-28T09:26:41.897Z,16.35
2022-08-28T09:31:46.161Z,12.20
2022-08-28T09:36:51.418Z,14.05
2022-08-28T09:47:46.000Z,12.45
2022-08-28T09:52:53.993Z,12.10
2022-08-28T09:57:57.145Z,12.90
2022-08-28T10:03:07.804Z,12.02
2022-08-28T10:08:27.586Z,14.32
2022-08-28T10:13:35.518Z,17.67
2022-08-28T10:18:45.779Z,20.55
2022-08-28T10:24:11.404Z,18.17
2022-08-28T10:29:26.684Z,15.02
2022-08-28T10:34:39.590Z,19.08
2022-08-28T10:39:51.498Z,12.40
2022-08-28T10:44:59.840Z,11.10
2022-08-28T10:50:11.273Z,13.32
2022-08-28T10:55:21.579Z,14.68
2022-08-28T11:00:27.345Z,12.65
2022-08-28T11:05:37.055Z,13.85
2022-08-28T11:10:50.508Z,16.02
2022-08-28T11:15:53.847Z,12.88
2022-08-28T11:21:09.807Z,17.02
2022-08-28T11:26:22.965Z,20.35
2022-08-28T11:31:35.249Z,16.25
2022-08-28T11:37:00.944Z,14.40
2022-08-28T11:42:34.452Z,14.43
2022-08-28T11:47:56.637Z,13.50
2022-08-28T11:53:24.043Z,14.38
2022-08-28T11:58:36.447Z,11.50
2022-08-28T12:03:42.726Z,13.45
2022-08-28T12:09:10.522Z,13.52
2022-08-28T12:14:50.350Z,15.30
2022-08-28T12:19:58.735Z,15.02
2022-08-28T12:25:06.377Z,9.77
2022-08-28T12:30:12.196Z,14.20
2022-08-28T12:35:19.528Z,15.38
2022-08-28T12:40:25.552Z,14.30
2022-08-28T12:45:37.117Z,16.70
2022-08-28T12:50:40.893Z,15.93
2022-08-28T12:55:45.971Z,12.13
2022-08-28T13:00:56.904Z,13.10
2022-08-28T13:28:59.401Z,8.30
2022-08-28T13:34:11.254Z,6.93
2022-08-28T13:39:17.217Z,8.10
2022-08-28T13:44:33.214Z,8.38
2022-08-28T13:49:36.329Z,7.07
2022-08-28T13:54:43.524Z,6.78
2022-08-28T13:59:53.576Z,7.78
2022-08-28T14:04:58.606Z,9.20
2022-08-28T14:10:01.895Z,6.78
2022-08-28T14:15:08.402Z,8.97
2022-08-28T14:20:13.215Z,9.50
2022-08-28T14:25:47.619Z,7.18
2022-08-28T14:31:15.041Z,6.82
2022-08-28T14:36:21.163Z,10.65
2022-08-28T14:41:25.466Z,6.03
2022-08-28T14:46:33.071Z,6.00
2022-08-28T14:51:38.358Z,8.60
2022-08-28T14:56:41.605Z,8.43
2022-08-28T15:01:46.539Z,10.05
2022-08-28T15:06:50.860Z,6.85
2022-08-28T15:11:54.401Z,7.03
2022-08-28T15:16:59.315Z,9.07
2022-08-28T15:22:04.217Z,8.27
2022-08-28T15:27:07.462Z,6.20
2022-08-28T15:40:01.635Z,7.28
2022-08-28T15:45:05.878Z,8.57
2022-08-28T15:50:10.013Z,15.20
2022-08-28T15:55:16.175Z,5.97
2022-08-28T16:00:19.918Z,9.20
2022-08-28T16:05:24.519Z,14.48
2022-08-28T16:10:31.023Z,10.18
2022-08-28T16:15:34.874Z,6.22
2022-08-28T16:20:38.187Z,12.60
2022-08-28T16:25:42.651Z,7.18
2022-08-28T16:30:45.881Z,6.32
2022-08-28T16:35:55.159Z,9.25
2022-08-28T16:41:00.713Z,8.18
2022-08-28T16:46:03.883Z,7.90
2022-08-28T16:58:43.003Z,6.18
2022-08-28T17:03:46.417Z,8.23
2022-08-28T17:08:53.308Z,7.60
2022-08-28T17:14:00.633Z,11.15
2022-08-28T17:19:04.181Z,12.25
2022-08-28T17:24:07.606Z,9.20
2022-08-28T17:29:12.402Z,7.10
2022-08-28T17:34:15.533Z,8.77
2022-08-28T17:39:25.248Z,7.07
2022-08-28T17:44:29.876Z,7.60
2022-08-28T17:49:33.214Z,7.20
2022-08-28T17:54:36.246Z,6.45
2022-08-28T17:59:40.911Z,7.28
2022-08-28T18:04:44.309Z,7.15
2022-08-28T18:09:47.968Z,6.15
2022-08-28T18:14:54.065Z,8.27
2022-08-28T18:19:57.702Z,9.82
2022-08-28T18:25:04.161Z,19.92
2022-08-28T18:30:10.159Z,26.27
2022-08-28T18:35:13.377Z,22.98
2022-08-28T18:40:17.010Z,15.82
2022-08-28T18:45:21.575Z,8.55
2022-08-28T18:50:26.784Z,13.00
2022-08-28T18:55:32.074Z,11.48
2022-08-28T19:00:36.736Z,21.20
2022-08-28T19:05:40.082Z,37.57
2022-08-28T19:10:43.500Z,45.17
2022-08-28T19:15:50.672Z,87.75
2022-08-28T19:21:03.412Z,92.32
2022-08-28T19:26:06.744Z,64.65
2022-08-28T19:31:11.717Z,36.83
2022-08-28T19:36:15.389Z,24.65
2022-08-28T19:41:18.572Z,21.65
2022-08-28T19:46:23.442Z,14.75
2022-08-28T19:51:26.655Z,9.23
2022-08-28T19:56:31.582Z,9.75
2022-08-28T20:01:38.672Z,8.40
2022-08-28T20:06:41.804Z,7.75
2022-08-28T20:11:47.525Z,7.70
2022-08-28T20:16:52.117Z,7.05
2022-08-28T20:21:55.807Z,10.20
2022-08-28T20:26:59.118Z,13.32
2022-08-28T20:32:04.098Z,9.80
2022-08-28T20:37:07.188Z,7.10
2022-08-28T20:42:11.816Z,6.25
2022-08-28T20:47:16.254Z,14.43
2022-08-28T20:52:19.384Z,10.23
2022-08-28T20:57:22.997Z,6.18
2022-08-28T21:02:29.383Z,7.97
2022-08-28T21:07:34.783Z,7.82
2022-08-28T21:17:43.291Z,15.70
2022-08-28T21:22:46.388Z,9.17
2022-08-28T21:27:49.466Z,9.95
2022-08-28T21:32:54.226Z,9.40
2022-08-28T21:37:57.592Z,8.13
2022-08-28T21:43:00.797Z,10.00
2022-08-28T21:48:05.647Z,14.85
2022-08-28T21:53:08.764Z,9.35
2022-08-28T21:58:11.882Z,8.45
2022-08-28T22:03:17.122Z,8.50
2022-08-28T22:08:22.623Z,16.83
2022-08-28T22:13:25.671Z,7.82
2022-08-28T22:18:32.112Z,7.45
2022-08-28T22:23:37.668Z,8.27
2022-08-28T22:28:42.515Z,11.23
2022-08-28T22:33:47.043Z,9.35
2022-08-28T22:38:53.221Z,8.27
2022-08-28T22:43:56.674Z,7.95
2022-08-28T22:49:01.202Z,11.38
2022-08-28T22:54:04.830Z,9.97
2022-08-28T22:59:08.031Z,8.35
2022-08-28T23:04:12.604Z,9.75
2022-08-28T23:09:15.805Z,11.00
2022-08-28T23:14:19.293Z,15.13
2022-08-28T23:19:23.901Z,13.90
2022-08-28T23:24:27.115Z,19.63
2022-08-28T23:29:30.421Z,9.45
2022-08-28T23:34:34.926Z,14.90
2022-08-28T23:39:39.125Z,12.73
2022-08-28T23:44:42.339Z,12.50
2022-08-28T23:49:47.125Z,7.82
2022-08-28T23:54:50.430Z,11.53
2022-08-28T23:59:53.772Z,8.65
